sensor_id;sensor_type;location;lat;lon;timestamp;temperature;humidity
19031;DHT22;9648;51.130;13.978;2022-07-10T00:00:19;13.30;99.90
19031;DHT22;9648;51.130;13.978;2022-07-10T00:02:48;13.30;99.90
19031;DHT22;9648;51.130;13.978;2022-07-10T00:05:14;13.20;99.90
19031;DHT22;9648;51.130;13.978;2022-07-10T00:07:41;13.20;99.90
19031;DHT22;9648;51.130;13.978;2022-07-10T00:10:08;13.20;99.90
19031;DHT22;9648;51.130;13.978;2022-07-10T00:12:35;13.20;99.90
19031;DHT22;9648;51.130;13.978;2022-07-10T00:15:02;13.20;99.90
19031;DHT22;9648;51.130;13.978;2022-07-10T00:17:28;13.30;99.90
19031;DHT22;9648;51.130;13.978;2022-07-10T00:19:56;13.30;99.90
19031;DHT22;9648;51.130;13.978;2022-07-10T00:22:23;13.30;99.90
19031;DHT22;9648;51.130;13.978;2022-07-10T00:24:50;13.30;99.90
19031;DHT22;9648;51.130;13.978;2022-07-10T00:27:17;13.30;99.90
19031;DHT22;9648;51.130;13.978;2022-07-10T00:29:43;13.30;99.90
19031;DHT22;9648;51.130;13.978;2022-07-10T00:32:10;13.30;99.90
19031;DHT22;9648;51.130;13.978;2022-07-10T00:34:37;13.30;99.90
19031;DHT22;9648;51.130;13.978;2022-07-10T00:37:05;13.30;99.90
19031;DHT22;9648;51.130;13.978;2022-07-10T00:39:32;13.30;99.90
19031;DHT22;9648;51.130;13.978;2022-07-10T00:42:06;13.30;99.90
19031;DHT22;9648;51.130;13.978;2022-07-10T00:44:33;13.30;99.90
19031;DHT22;9648;51.130;13.978;2022-07-10T00:47:01;13.30;99.90
19031;DHT22;9648;51.130;13.978;2022-07-10T00:49:27;13.30;99.90
19031;DHT22;9648;51.130;13.978;2022-07-10T00:51:55;13.30;99.90
19031;DHT22;9648;51.130;13.978;2022-07-10T00:54:23;13.30;99.90
19031;DHT22;9648;51.130;13.978;2022-07-10T00:56:50;13.30;99.90
19031;DHT22;9648;51.130;13.978;2022-07-10T00:59:17;13.20;99.90
19031;DHT22;9648;51.130;13.978;2022-07-10T01:01:45;13.20;99.90
19031;DHT22;9648;51.130;13.978;2022-07-10T01:04:11;13.10;99.90
19031;DHT22;9648;51.130;13.978;2022-07-10T01:06:38;13.10;99.90
19031;DHT22;9648;51.130;13.978;2022-07-10T01:09:05;13.10;99.90
19031;DHT22;9648;51.130;13.978;2022-07-10T01:11:34;13.10;99.90
19031;DHT22;9648;51.130;13.978;2022-07-10T01:14:01;13.10;99.90
19031;DHT22;9648;51.130;13.978;2022-07-10T01:16:29;13.10;99.90
19031;DHT22;9648;51.130;13.978;2022-07-10T01:18:56;13.10;99.90
19031;DHT22;9648;51.130;13.978;2022-07-10T01:21:25;13.10;99.90
19031;DHT22;9648;51.130;13.978;2022-07-10T01:23:51;13.10;99.90
19031;DHT22;9648;51.130;13.978;2022-07-10T01:26:19;13.10;99.90
19031;DHT22;9648;51.130;13.978;2022-07-10T01:28:48;13.10;99.90
19031;DHT22;9648;51.130;13.978;2022-07-10T01:31:15;13.10;99.90
19031;DHT22;9648;51.130;13.978;2022-07-10T01:33:41;13.10;99.90
19031;DHT22;9648;51.130;13.978;2022-07-10T01:36:10;13.00;99.90
19031;DHT22;9648;51.130;13.978;2022-07-10T01:38:38;13.10;99.90
19031;DHT22;9648;51.130;13.978;2022-07-10T01:41:05;13.10;99.90
19031;DHT22;9648;51.130;13.978;2022-07-10T01:43:32;13.10;99.90
19031;DHT22;9648;51.130;13.978;2022-07-10T01:45:58;13.10;99.90
19031;DHT22;9648;51.130;13.978;2022-07-10T01:48:25;13.10;99.90
19031;DHT22;9648;51.130;13.978;2022-07-10T01:50:52;13.00;99.90
19031;DHT22;9648;51.130;13.978;2022-07-10T01:53:18;13.00;99.90
19031;DHT22;9648;51.130;13.978;2022-07-10T01:55:47;13.00;99.90
19031;DHT22;9648;51.130;13.978;2022-07-10T01:58:13;13.00;99.90
19031;DHT22;9648;51.130;13.978;2022-07-10T02:00:40;13.00;99.90
19031;DHT22;9648;51.130;13.978;2022-07-10T02:03:07;13.00;99.90
19031;DHT22;9648;51.130;13.978;2022-07-10T02:05:51;13.00;99.90
19031;DHT22;9648;51.130;13.978;2022-07-10T02:08:18;13.00;99.90
19031;DHT22;9648;51.130;13.978;2022-07-10T02:10:44;13.00;99.90
19031;DHT22;9648;51.130;13.978;2022-07-10T02:13:12;12.90;99.90
19031;DHT22;9648;51.130;13.978;2022-07-10T02:15:40;12.90;99.90
19031;DHT22;9648;51.130;13.978;2022-07-10T02:18:06;12.90;99.90
19031;DHT22;9648;51.130;13.978;2022-07-10T02:20:33;12.90;99.90
19031;DHT22;9648;51.130;13.978;2022-07-10T02:23:00;12.90;99.90
19031;DHT22;9648;51.130;13.978;2022-07-10T02:25:27;12.90;99.90
19031;DHT22;9648;51.130;13.978;2022-07-10T02:27:54;12.90;99.90
19031;DHT22;9648;51.130;13.978;2022-07-10T02:30:22;12.90;99.90
19031;DHT22;9648;51.130;13.978;2022-07-10T02:32:49;12.90;99.90
19031;DHT22;9648;51.130;13.978;2022-07-10T02:35:16;12.90;99.90
19031;DHT22;9648;51.130;13.978;2022-07-10T02:37:43;12.90;99.90
19031;DHT22;9648;51.130;13.978;2022-07-10T02:40:09;12.90;99.90
19031;DHT22;9648;51.130;13.978;2022-07-10T02:42:36;12.90;99.90
19031;DHT22;9648;51.130;13.978;2022-07-10T02:45:03;12.90;99.90
19031;DHT22;9648;51.130;13.978;2022-07-10T02:47:32;12.90;99.90
19031;DHT22;9648;51.130;13.978;2022-07-10T02:49:58;12.90;99.90
19031;DHT22;9648;51.130;13.978;2022-07-10T02:52:25;12.80;99.90
19031;DHT22;9648;51.130;13.978;2022-07-10T02:54:51;12.80;99.90
19031;DHT22;9648;51.130;13.978;2022-07-10T02:57:18;12.80;99.90
19031;DHT22;9648;51.130;13.978;2022-07-10T02:59:45;12.80;99.90
19031;DHT22;9648;51.130;13.978;2022-07-10T03:02:11;12.80;99.90
19031;DHT22;9648;51.130;13.978;2022-07-10T03:04:39;12.80;99.90
19031;DHT22;9648;51.130;13.978;2022-07-10T03:07:06;12.80;99.90
19031;DHT22;9648;51.130;13.978;2022-07-10T03:09:32;12.80;99.90
19031;DHT22;9648;51.130;13.978;2022-07-10T03:11:59;12.80;99.90
19031;DHT22;9648;51.130;13.978;2022-07-10T03:14:26;12.80;99.90
19031;DHT22;9648;51.130;13.978;2022-07-10T03:16:53;12.80;99.90
19031;DHT22;9648;51.130;13.978;2022-07-10T03:19:19;12.70;99.90
19031;DHT22;9648;51.130;13.978;2022-07-10T03:21:47;12.70;99.90
19031;DHT22;9648;51.130;13.978;2022-07-10T03:24:14;12.70;99.90
19031;DHT22;9648;51.130;13.978;2022-07-10T03:26:40;12.70;99.90
19031;DHT22;9648;51.130;13.978;2022-07-10T03:29:07;12.70;99.90
19031;DHT22;9648;51.130;13.978;2022-07-10T03:31:34;12.80;99.90
19031;DHT22;9648;51.130;13.978;2022-07-10T03:34:00;12.80;99.90
19031;DHT22;9648;51.130;13.978;2022-07-10T03:36:27;12.80;99.90
19031;DHT22;9648;51.130;13.978;2022-07-10T03:38:55;12.80;99.90
19031;DHT22;9648;51.130;13.978;2022-07-10T03:41:22;12.70;99.90
19031;DHT22;9648;51.130;13.978;2022-07-10T03:43:48;12.70;99.90
19031;DHT22;9648;51.130;13.978;2022-07-10T03:46:15;12.70;99.90
19031;DHT22;9648;51.130;13.978;2022-07-10T03:48:42;12.70;99.90
19031;DHT22;9648;51.130;13.978;2022-07-10T03:51:08;12.80;99.90
19031;DHT22;9648;51.130;13.978;2022-07-10T03:53:35;12.80;99.90
19031;DHT22;9648;51.130;13.978;2022-07-10T03:56:04;12.80;99.90
19031;DHT22;9648;51.130;13.978;2022-07-10T03:58:31;12.80;99.90
19031;DHT22;9648;51.130;13.978;2022-07-10T04:00:57;12.90;99.90
19031;DHT22;9648;51.130;13.978;2022-07-10T04:03:23;12.80;99.90
19031;DHT22;9648;51.130;13.978;2022-07-10T04:05:50;12.80;99.90
19031;DHT22;9648;51.130;13.978;2022-07-10T04:08:17;12.80;99.90
19031;DHT22;9648;51.130;13.978;2022-07-10T04:10:43;12.90;99.90
19031;DHT22;9648;51.130;13.978;2022-07-10T04:13:12;12.90;99.90
19031;DHT22;9648;51.130;13.978;2022-07-10T04:15:38;12.80;99.90
19031;DHT22;9648;51.130;13.978;2022-07-10T04:18:05;12.90;99.90
19031;DHT22;9648;51.130;13.978;2022-07-10T04:20:31;13.00;99.90
19031;DHT22;9648;51.130;13.978;2022-07-10T04:22:58;13.00;99.90
19031;DHT22;9648;51.130;13.978;2022-07-10T04:25:25;13.10;99.90
19031;DHT22;9648;51.130;13.978;2022-07-10T04:27:51;13.10;99.90
19031;DHT22;9648;51.130;13.978;2022-07-10T04:30:20;13.20;99.90
19031;DHT22;9648;51.130;13.978;2022-07-10T04:32:46;13.20;99.90
19031;DHT22;9648;51.130;13.978;2022-07-10T04:35:13;13.20;99.90
19031;DHT22;9648;51.130;13.978;2022-07-10T04:37:40;13.20;99.90
19031;DHT22;9648;51.130;13.978;2022-07-10T04:40:08;13.20;99.90
19031;DHT22;9648;51.130;13.978;2022-07-10T04:42:35;13.20;99.90
19031;DHT22;9648;51.130;13.978;2022-07-10T04:45:02;13.20;99.90
19031;DHT22;9648;51.130;13.978;2022-07-10T04:47:30;13.20;99.90
19031;DHT22;9648;51.130;13.978;2022-07-10T04:49:57;13.30;99.90
19031;DHT22;9648;51.130;13.978;2022-07-10T04:52:24;13.20;99.90
19031;DHT22;9648;51.130;13.978;2022-07-10T04:54:50;13.20;99.90
19031;DHT22;9648;51.130;13.978;2022-07-10T04:57:17;13.20;99.90
19031;DHT22;9648;51.130;13.978;2022-07-10T04:59:43;13.10;99.90
19031;DHT22;9648;51.130;13.978;2022-07-10T05:02:10;13.20;99.90
19031;DHT22;9648;51.130;13.978;2022-07-10T05:04:38;13.10;99.90
19031;DHT22;9648;51.130;13.978;2022-07-10T05:07:05;13.20;99.90
19031;DHT22;9648;51.130;13.978;2022-07-10T05:09:31;13.10;99.90
19031;DHT22;9648;51.130;13.978;2022-07-10T05:11:58;13.10;99.90
19031;DHT22;9648;51.130;13.978;2022-07-10T05:14:24;13.00;99.90
19031;DHT22;9648;51.130;13.978;2022-07-10T05:16:52;13.10;99.90
19031;DHT22;9648;51.130;13.978;2022-07-10T05:19:18;13.10;99.90
19031;DHT22;9648;51.130;13.978;2022-07-10T05:21:46;13.10;99.90
19031;DHT22;9648;51.130;13.978;2022-07-10T05:24:13;13.20;99.90
19031;DHT22;9648;51.130;13.978;2022-07-10T05:26:40;13.30;99.90
19031;DHT22;9648;51.130;13.978;2022-07-10T05:29:06;13.40;99.90
19031;DHT22;9648;51.130;13.978;2022-07-10T05:31:33;13.50;99.90
19031;DHT22;9648;51.130;13.978;2022-07-10T05:34:00;13.60;99.90
19031;DHT22;9648;51.130;13.978;2022-07-10T05:36:27;13.60;99.90
19031;DHT22;9648;51.130;13.978;2022-07-10T05:38:55;13.70;99.90
19031;DHT22;9648;51.130;13.978;2022-07-10T05:41:21;13.70;99.90
19031;DHT22;9648;51.130;13.978;2022-07-10T05:43:48;13.70;99.90
19031;DHT22;9648;51.130;13.978;2022-07-10T05:46:15;13.70;99.90
19031;DHT22;9648;51.130;13.978;2022-07-10T05:48:41;13.70;99.90
19031;DHT22;9648;51.130;13.978;2022-07-10T05:51:08;13.70;99.90
19031;DHT22;9648;51.130;13.978;2022-07-10T05:53:34;13.80;99.90
19031;DHT22;9648;51.130;13.978;2022-07-10T05:56:03;13.80;99.90
19031;DHT22;9648;51.130;13.978;2022-07-10T05:58:29;13.90;99.90
19031;DHT22;9648;51.130;13.978;2022-07-10T06:00:56;14.00;99.90
19031;DHT22;9648;51.130;13.978;2022-07-10T06:03:23;14.00;99.90
19031;DHT22;9648;51.130;13.978;2022-07-10T06:05:50;14.00;99.90
19031;DHT22;9648;51.130;13.978;2022-07-10T06:08:17;14.00;99.90
19031;DHT22;9648;51.130;13.978;2022-07-10T06:10:44;14.10;99.90
19031;DHT22;9648;51.130;13.978;2022-07-10T06:13:12;14.10;99.90
19031;DHT22;9648;51.130;13.978;2022-07-10T06:15:39;14.10;99.90
19031;DHT22;9648;51.130;13.978;2022-07-10T06:18:06;14.00;99.90
19031;DHT22;9648;51.130;13.978;2022-07-10T06:20:32;14.00;99.90
19031;DHT22;9648;51.130;13.978;2022-07-10T06:22:59;14.00;99.90
19031;DHT22;9648;51.130;13.978;2022-07-10T06:25:26;14.10;99.90
19031;DHT22;9648;51.130;13.978;2022-07-10T06:27:52;14.20;99.90
19031;DHT22;9648;51.130;13.978;2022-07-10T06:30:20;14.30;99.90
19031;DHT22;9648;51.130;13.978;2022-07-10T06:32:47;14.40;99.90
19031;DHT22;9648;51.130;13.978;2022-07-10T06:35:14;14.50;99.90
19031;DHT22;9648;51.130;13.978;2022-07-10T06:37:40;14.70;99.90
19031;DHT22;9648;51.130;13.978;2022-07-10T06:40:10;14.80;99.90
19031;DHT22;9648;51.130;13.978;2022-07-10T06:42:38;15.00;99.90
19031;DHT22;9648;51.130;13.978;2022-07-10T06:45:06;15.00;99.90
19031;DHT22;9648;51.130;13.978;2022-07-10T06:47:34;15.10;99.90
19031;DHT22;9648;51.130;13.978;2022-07-10T06:50:18;15.10;99.90
19031;DHT22;9648;51.130;13.978;2022-07-10T06:52:45;14.90;99.90
19031;DHT22;9648;51.130;13.978;2022-07-10T06:55:12;14.90;99.90
19031;DHT22;9648;51.130;13.978;2022-07-10T06:57:39;15.00;99.90
19031;DHT22;9648;51.130;13.978;2022-07-10T07:00:07;15.00;99.90
19031;DHT22;9648;51.130;13.978;2022-07-10T07:02:36;15.10;99.90
19031;DHT22;9648;51.130;13.978;2022-07-10T07:05:03;15.20;99.90
19031;DHT22;9648;51.130;13.978;2022-07-10T07:07:30;15.30;99.90
19031;DHT22;9648;51.130;13.978;2022-07-10T07:09:57;15.40;99.90
19031;DHT22;9648;51.130;13.978;2022-07-10T07:12:24;15.50;99.90
19031;DHT22;9648;51.130;13.978;2022-07-10T07:14:50;15.50;99.90
19031;DHT22;9648;51.130;13.978;2022-07-10T07:17:17;15.40;99.90
19031;DHT22;9648;51.130;13.978;2022-07-10T07:19:49;15.40;99.90
19031;DHT22;9648;51.130;13.978;2022-07-10T07:22:34;15.30;99.90
19031;DHT22;9648;51.130;13.978;2022-07-10T07:25:18;15.20;99.90
19031;DHT22;9648;51.130;13.978;2022-07-10T07:27:45;15.10;99.90
19031;DHT22;9648;51.130;13.978;2022-07-10T07:30:13;15.10;99.90
19031;DHT22;9648;51.130;13.978;2022-07-10T07:32:41;15.20;99.90
19031;DHT22;9648;51.130;13.978;2022-07-10T07:35:12;15.40;99.90
19031;DHT22;9648;51.130;13.978;2022-07-10T07:37:40;15.40;99.90
19031;DHT22;9648;51.130;13.978;2022-07-10T07:40:09;15.30;99.90
19031;DHT22;9648;51.130;13.978;2022-07-10T07:42:36;15.30;99.90
19031;DHT22;9648;51.130;13.978;2022-07-10T07:45:04;15.20;99.90
19031;DHT22;9648;51.130;13.978;2022-07-10T07:47:31;15.10;99.90
19031;DHT22;9648;51.130;13.978;2022-07-10T07:50:09;15.00;99.90
19031;DHT22;9648;51.130;13.978;2022-07-10T07:52:36;15.00;99.90
19031;DHT22;9648;51.130;13.978;2022-07-10T07:55:03;15.10;99.90
19031;DHT22;9648;51.130;13.978;2022-07-10T07:57:30;15.40;99.90
19031;DHT22;9648;51.130;13.978;2022-07-10T07:59:57;15.70;99.90
19031;DHT22;9648;51.130;13.978;2022-07-10T08:02:23;15.90;99.90
19031;DHT22;9648;51.130;13.978;2022-07-10T08:04:50;16.20;99.90
19031;DHT22;9648;51.130;13.978;2022-07-10T08:07:18;16.20;99.90
19031;DHT22;9648;51.130;13.978;2022-07-10T08:09:45;16.30;99.90
19031;DHT22;9648;51.130;13.978;2022-07-10T08:12:11;16.20;99.90
19031;DHT22;9648;51.130;13.978;2022-07-10T08:14:38;16.30;99.90
19031;DHT22;9648;51.130;13.978;2022-07-10T08:17:05;16.30;99.90
19031;DHT22;9648;51.130;13.978;2022-07-10T08:19:31;16.30;99.90
19031;DHT22;9648;51.130;13.978;2022-07-10T08:21:58;16.40;99.90
19031;DHT22;9648;51.130;13.978;2022-07-10T08:24:26;16.20;99.90
19031;DHT22;9648;51.130;13.978;2022-07-10T08:26:52;16.20;99.90
19031;DHT22;9648;51.130;13.978;2022-07-10T08:29:20;16.20;99.90
19031;DHT22;9648;51.130;13.978;2022-07-10T08:31:47;16.20;99.90
19031;DHT22;9648;51.130;13.978;2022-07-10T08:34:14;16.20;99.90
19031;DHT22;9648;51.130;13.978;2022-07-10T08:36:40;16.30;99.90
19031;DHT22;9648;51.130;13.978;2022-07-10T08:39:07;16.50;99.90
19031;DHT22;9648;51.130;13.978;2022-07-10T08:41:36;16.60;99.10
19031;DHT22;9648;51.130;13.978;2022-07-10T08:44:03;16.50;99.60
19031;DHT22;9648;51.130;13.978;2022-07-10T08:46:31;16.40;99.90
19031;DHT22;9648;51.130;13.978;2022-07-10T08:48:59;16.30;98.60
19031;DHT22;9648;51.130;13.978;2022-07-10T08:51:35;16.20;99.10
19031;DHT22;9648;51.130;13.978;2022-07-10T08:54:04;16.10;99.20
19031;DHT22;9648;51.130;13.978;2022-07-10T08:56:31;15.80;99.60
19031;DHT22;9648;51.130;13.978;2022-07-10T08:59:01;15.80;99.90
19031;DHT22;9648;51.130;13.978;2022-07-10T09:01:28;15.90;99.90
19031;DHT22;9648;51.130;13.978;2022-07-10T09:03:55;15.80;99.90
19031;DHT22;9648;51.130;13.978;2022-07-10T09:06:21;15.60;99.90
19031;DHT22;9648;51.130;13.978;2022-07-10T09:08:58;15.50;99.90
19031;DHT22;9648;51.130;13.978;2022-07-10T09:11:25;15.60;99.90
19031;DHT22;9648;51.130;13.978;2022-07-10T09:13:55;15.70;99.90
19031;DHT22;9648;51.130;13.978;2022-07-10T09:16:25;15.80;99.90
19031;DHT22;9648;51.130;13.978;2022-07-10T09:18:52;15.90;99.90
19031;DHT22;9648;51.130;13.978;2022-07-10T09:21:19;16.00;99.90
19031;DHT22;9648;51.130;13.978;2022-07-10T09:23:46;16.20;99.90
19031;DHT22;9648;51.130;13.978;2022-07-10T09:26:13;16.30;99.90
19031;DHT22;9648;51.130;13.978;2022-07-10T09:28:40;16.50;99.90
19031;DHT22;9648;51.130;13.978;2022-07-10T09:31:07;16.70;99.50
19031;DHT22;9648;51.130;13.978;2022-07-10T09:33:35;16.70;98.30
19031;DHT22;9648;51.130;13.978;2022-07-10T09:36:06;16.70;97.20
19031;DHT22;9648;51.130;13.978;2022-07-10T09:38:49;16.70;96.80
19031;DHT22;9648;51.130;13.978;2022-07-10T09:41:17;16.80;95.30
19031;DHT22;9648;51.130;13.978;2022-07-10T09:43:46;16.80;95.80
19031;DHT22;9648;51.130;13.978;2022-07-10T09:46:13;17.00;96.70
19031;DHT22;9648;51.130;13.978;2022-07-10T09:48:41;17.20;96.60
19031;DHT22;9648;51.130;13.978;2022-07-10T09:51:09;17.40;96.00
19031;DHT22;9648;51.130;13.978;2022-07-10T09:53:38;17.60;95.90
19031;DHT22;9648;51.130;13.978;2022-07-10T09:56:07;17.70;93.90
19031;DHT22;9648;51.130;13.978;2022-07-10T09:58:34;17.40;93.10
19031;DHT22;9648;51.130;13.978;2022-07-10T10:01:02;16.90;94.30
19031;DHT22;9648;51.130;13.978;2022-07-10T10:03:33;16.50;96.20
19031;DHT22;9648;51.130;13.978;2022-07-10T10:06:04;16.10;96.50
19031;DHT22;9648;51.130;13.978;2022-07-10T10:08:39;15.70;98.00
19031;DHT22;9648;51.130;13.978;2022-07-10T10:11:14;15.70;99.90
19031;DHT22;9648;51.130;13.978;2022-07-10T10:13:43;15.80;98.90
19031;DHT22;9648;51.130;13.978;2022-07-10T10:16:10;16.10;99.20
19031;DHT22;9648;51.130;13.978;2022-07-10T10:18:37;16.30;98.90
19031;DHT22;9648;51.130;13.978;2022-07-10T10:21:27;16.60;97.60
19031;DHT22;9648;51.130;13.978;2022-07-10T10:23:54;17.00;95.30
19031;DHT22;9648;51.130;13.978;2022-07-10T10:26:22;17.00;92.90
19031;DHT22;9648;51.130;13.978;2022-07-10T10:28:50;16.80;92.30
19031;DHT22;9648;51.130;13.978;2022-07-10T10:31:18;16.70;92.80
19031;DHT22;9648;51.130;13.978;2022-07-10T10:33:45;16.60;93.30
19031;DHT22;9648;51.130;13.978;2022-07-10T10:36:15;16.60;86.90
19031;DHT22;9648;51.130;13.978;2022-07-10T10:39:04;16.70;91.20
19031;DHT22;9648;51.130;13.978;2022-07-10T10:41:40;16.90;84.60
19031;DHT22;9648;51.130;13.978;2022-07-10T10:44:26;16.90;81.80
19031;DHT22;9648;51.130;13.978;2022-07-10T10:46:56;16.90;82.80
19031;DHT22;9648;51.130;13.978;2022-07-10T10:49:26;17.00;81.70
19031;DHT22;9648;51.130;13.978;2022-07-10T10:51:57;17.10;81.00
19031;DHT22;9648;51.130;13.978;2022-07-10T10:54:25;17.10;82.00
19031;DHT22;9648;51.130;13.978;2022-07-10T10:57:11;17.20;84.40
19031;DHT22;9648;51.130;13.978;2022-07-10T10:59:44;17.20;79.50
19031;DHT22;9648;51.130;13.978;2022-07-10T11:02:21;17.40;81.00
19031;DHT22;9648;51.130;13.978;2022-07-10T11:04:49;17.50;82.30
19031;DHT22;9648;51.130;13.978;2022-07-10T11:07:52;17.60;82.30
19031;DHT22;9648;51.130;13.978;2022-07-10T11:10:29;17.40;82.80
19031;DHT22;9648;51.130;13.978;2022-07-10T11:12:58;17.10;85.60
19031;DHT22;9648;51.130;13.978;2022-07-10T11:15:25;16.80;83.80
19031;DHT22;9648;51.130;13.978;2022-07-10T11:17:55;16.40;88.20
19031;DHT22;9648;51.130;13.978;2022-07-10T11:20:22;16.10;91.50
19031;DHT22;9648;51.130;13.978;2022-07-10T11:22:57;15.80;93.20
19031;DHT22;9648;51.130;13.978;2022-07-10T11:25:36;15.80;95.30
19031;DHT22;9648;51.130;13.978;2022-07-10T11:28:09;16.00;95.20
19031;DHT22;9648;51.130;13.978;2022-07-10T11:30:49;16.30;95.10
19031;DHT22;9648;51.130;13.978;2022-07-10T11:33:17;16.70;95.30
19031;DHT22;9648;51.130;13.978;2022-07-10T11:35:48;17.00;93.50
19031;DHT22;9648;51.130;13.978;2022-07-10T11:38:23;17.30;93.70
19031;DHT22;9648;51.130;13.978;2022-07-10T11:40:50;17.50;92.10
19031;DHT22;9648;51.130;13.978;2022-07-10T11:43:19;17.50;88.40
19031;DHT22;9648;51.130;13.978;2022-07-10T11:45:49;17.50;89.80
19031;DHT22;9648;51.130;13.978;2022-07-10T11:48:18;17.40;84.70
19031;DHT22;9648;51.130;13.978;2022-07-10T11:50:45;17.50;87.80
19031;DHT22;9648;51.130;13.978;2022-07-10T11:53:12;17.70;88.40
19031;DHT22;9648;51.130;13.978;2022-07-10T11:55:40;17.90;87.00
19031;DHT22;9648;51.130;13.978;2022-07-10T11:58:14;18.10;82.30
19031;DHT22;9648;51.130;13.978;2022-07-10T12:00:41;18.20;86.20
19031;DHT22;9648;51.130;13.978;2022-07-10T12:03:18;18.30;81.20
19031;DHT22;9648;51.130;13.978;2022-07-10T12:05:46;18.30;84.20
19031;DHT22;9648;51.130;13.978;2022-07-10T12:08:14;18.10;77.30
19031;DHT22;9648;51.130;13.978;2022-07-10T12:10:42;17.80;80.00
19031;DHT22;9648;51.130;13.978;2022-07-10T12:13:09;17.40;78.80
19031;DHT22;9648;51.130;13.978;2022-07-10T12:15:39;17.00;80.80
19031;DHT22;9648;51.130;13.978;2022-07-10T12:18:06;16.60;81.80
19031;DHT22;9648;51.130;13.978;2022-07-10T12:20:33;16.40;83.90
19031;DHT22;9648;51.130;13.978;2022-07-10T12:23:03;16.30;85.10
19031;DHT22;9648;51.130;13.978;2022-07-10T12:25:30;16.20;84.90
19031;DHT22;9648;51.130;13.978;2022-07-10T12:27:58;16.30;89.00
19031;DHT22;9648;51.130;13.978;2022-07-10T12:30:38;16.60;88.90
19031;DHT22;9648;51.130;13.978;2022-07-10T12:33:10;16.80;84.80
19031;DHT22;9648;51.130;13.978;2022-07-10T12:35:51;16.70;84.00
19031;DHT22;9648;51.130;13.978;2022-07-10T12:38:21;16.70;85.20
19031;DHT22;9648;51.130;13.978;2022-07-10T12:40:49;16.90;87.00
19031;DHT22;9648;51.130;13.978;2022-07-10T12:43:28;17.10;90.00
19031;DHT22;9648;51.130;13.978;2022-07-10T12:46:14;17.30;87.00
19031;DHT22;9648;51.130;13.978;2022-07-10T12:48:42;17.40;86.60
19031;DHT22;9648;51.130;13.978;2022-07-10T12:51:21;17.30;87.00
19031;DHT22;9648;51.130;13.978;2022-07-10T12:53:48;17.20;86.50
19031;DHT22;9648;51.130;13.978;2022-07-10T12:56:29;17.10;85.50
19031;DHT22;9648;51.130;13.978;2022-07-10T12:58:58;17.30;88.80
19031;DHT22;9648;51.130;13.978;2022-07-10T13:01:26;17.40;82.50
19031;DHT22;9648;51.130;13.978;2022-07-10T13:04:00;17.50;81.40
19031;DHT22;9648;51.130;13.978;2022-07-10T13:06:28;17.60;81.90
19031;DHT22;9648;51.130;13.978;2022-07-10T13:08:55;17.70;77.90
19031;DHT22;9648;51.130;13.978;2022-07-10T13:11:22;17.80;73.80
19031;DHT22;9648;51.130;13.978;2022-07-10T13:13:49;18.00;73.60
19031;DHT22;9648;51.130;13.978;2022-07-10T13:16:17;18.10;72.60
19031;DHT22;9648;51.130;13.978;2022-07-10T13:18:44;18.20;71.50
19031;DHT22;9648;51.130;13.978;2022-07-10T13:21:11;18.20;67.90
19031;DHT22;9648;51.130;13.978;2022-07-10T13:23:38;18.20;69.40
19031;DHT22;9648;51.130;13.978;2022-07-10T13:26:05;18.30;65.40
19031;DHT22;9648;51.130;13.978;2022-07-10T13:28:33;17.90;65.20
19031;DHT22;9648;51.130;13.978;2022-07-10T13:31:00;17.90;66.80
19031;DHT22;9648;51.130;13.978;2022-07-10T13:33:29;18.10;70.70
19031;DHT22;9648;51.130;13.978;2022-07-10T13:35:55;18.20;66.90
19031;DHT22;9648;51.130;13.978;2022-07-10T13:38:25;18.40;66.30
19031;DHT22;9648;51.130;13.978;2022-07-10T13:40:51;18.50;65.50
19031;DHT22;9648;51.130;13.978;2022-07-10T13:43:18;18.70;65.90
19031;DHT22;9648;51.130;13.978;2022-07-10T13:45:46;18.80;65.60
19031;DHT22;9648;51.130;13.978;2022-07-10T13:48:14;18.60;65.40
19031;DHT22;9648;51.130;13.978;2022-07-10T13:50:44;18.30;67.20
19031;DHT22;9648;51.130;13.978;2022-07-10T13:53:12;18.10;65.90
19031;DHT22;9648;51.130;13.978;2022-07-10T13:55:39;17.80;69.70
19031;DHT22;9648;51.130;13.978;2022-07-10T13:58:06;17.80;68.70
19031;DHT22;9648;51.130;13.978;2022-07-10T14:00:34;17.80;68.80
19031;DHT22;9648;51.130;13.978;2022-07-10T14:03:01;17.90;67.50
19031;DHT22;9648;51.130;13.978;2022-07-10T14:05:28;18.10;68.70
19031;DHT22;9648;51.130;13.978;2022-07-10T14:07:56;18.20;67.50
19031;DHT22;9648;51.130;13.978;2022-07-10T14:10:23;18.50;67.90
19031;DHT22;9648;51.130;13.978;2022-07-10T14:12:50;18.70;67.90
19031;DHT22;9648;51.130;13.978;2022-07-10T14:15:17;19.00;65.80
19031;DHT22;9648;51.130;13.978;2022-07-10T14:17:44;19.30;63.40
19031;DHT22;9648;51.130;13.978;2022-07-10T14:20:11;19.40;61.20
19031;DHT22;9648;51.130;13.978;2022-07-10T14:22:38;19.30;62.30
19031;DHT22;9648;51.130;13.978;2022-07-10T14:25:07;19.20;61.20
19031;DHT22;9648;51.130;13.978;2022-07-10T14:27:34;19.20;62.30
19031;DHT22;9648;51.130;13.978;2022-07-10T14:30:01;19.20;61.50
19031;DHT22;9648;51.130;13.978;2022-07-10T14:32:28;19.20;62.70
19031;DHT22;9648;51.130;13.978;2022-07-10T14:34:54;19.20;60.80
19031;DHT22;9648;51.130;13.978;2022-07-10T14:37:21;19.30;62.40
19031;DHT22;9648;51.130;13.978;2022-07-10T14:39:48;19.50;59.40
19031;DHT22;9648;51.130;13.978;2022-07-10T14:42:16;19.70;61.20
19031;DHT22;9648;51.130;13.978;2022-07-10T14:44:43;20.10;63.50
19031;DHT22;9648;51.130;13.978;2022-07-10T14:47:09;20.00;56.60
19031;DHT22;9648;51.130;13.978;2022-07-10T14:49:36;19.90;57.40
19031;DHT22;9648;51.130;13.978;2022-07-10T14:52:03;19.70;56.20
19031;DHT22;9648;51.130;13.978;2022-07-10T14:54:30;19.40;56.70
19031;DHT22;9648;51.130;13.978;2022-07-10T14:56:56;19.40;59.60
19031;DHT22;9648;51.130;13.978;2022-07-10T14:59:25;19.40;58.40
19031;DHT22;9648;51.130;13.978;2022-07-10T15:01:51;19.50;58.50
19031;DHT22;9648;51.130;13.978;2022-07-10T15:04:18;19.60;56.70
19031;DHT22;9648;51.130;13.978;2022-07-10T15:06:44;19.80;56.40
19031;DHT22;9648;51.130;13.978;2022-07-10T15:09:12;19.80;57.00
19031;DHT22;9648;51.130;13.978;2022-07-10T15:11:39;19.80;55.60
19031;DHT22;9648;51.130;13.978;2022-07-10T15:14:05;19.70;55.70
19031;DHT22;9648;51.130;13.978;2022-07-10T15:16:34;19.80;57.20
19031;DHT22;9648;51.130;13.978;2022-07-10T15:19:00;20.10;56.60
19031;DHT22;9648;51.130;13.978;2022-07-10T15:21:27;20.30;55.30
19031;DHT22;9648;51.130;13.978;2022-07-10T15:23:54;20.40;54.10
19031;DHT22;9648;51.130;13.978;2022-07-10T15:26:21;20.50;54.00
19031;DHT22;9648;51.130;13.978;2022-07-10T15:28:48;20.40;53.00
19031;DHT22;9648;51.130;13.978;2022-07-10T15:31:14;20.00;53.30
19031;DHT22;9648;51.130;13.978;2022-07-10T15:33:42;19.60;54.40
19031;DHT22;9648;51.130;13.978;2022-07-10T15:36:11;19.30;55.80